Time;durP1;ratioP1;P1;durP2;ratioP2;P2;SDS_P1;SDS_P2;PMS_P1;PMS_P2;Temp;Humidity;BMP_temperature;BMP_pressure;BME280_temperature;BME280_humidity;BME280_pressure;Samples;Min_cycle;Max_cycle;Signal;HPM_P1;HPM_P2
2023/04/02 00:00:03;;;;;;;;;;;;;;;10.75;100.00;99368.38;5068718;28;19982;-56
2023/04/02 00:02:30;;;;;;;;;;;;;;;10.74;100.00;99362.19;5070566;28;19953;-57
2023/04/02 00:05:18;;;;;;;;;;;;;;;10.73;100.00;99363.13;5066617;28;20006;-57
2023/04/02 00:07:47;;;;;;;;;;;;;;;10.74;100.00;99366.66;5071197;28;20622;-57
2023/04/02 00:10:31;;;;;;;;;;;;;;;10.74;100.00;99364.00;5066566;28;20394;-57
2023/04/02 00:13:00;;;;;;;;;;;;;;;10.72;100.00;99371.16;5050864;28;19954;-57
2023/04/02 00:15:26;;;;;;;;;;;;;;;10.76;100.00;99378.09;5051793;28;19927;-56
2023/04/02 00:17:52;;;;;;;;;;;;;;;10.77;100.00;99379.81;5055173;28;19936;-57
2023/04/02 00:20:18;;;;;;;;;;;;;;;10.77;100.00;99382.47;5070619;28;20035;-57
2023/04/02 00:22:44;;;;;;;;;;;;;;;10.74;100.00;99382.59;5059205;28;19955;-57
2023/04/02 00:25:12;;;;;;;;;;;;;;;10.77;100.00;99382.47;5056307;28;19931;-57
2023/04/02 00:27:37;;;;;;;;;;;;;;;10.81;100.00;99387.59;5067282;28;19927;-57
2023/04/02 00:30:03;;;;;;;;;;;;;;;10.83;100.00;99376.88;5069838;28;19932;-57
2023/04/02 00:32:33;;;;;;;;;;;;;;;10.83;100.00;99384.84;5070447;28;19913;-57
2023/04/02 00:34:58;;;;;;;;;;;;;;;10.80;100.00;99387.66;5070096;28;19953;-57
2023/04/02 00:37:26;;;;;;;;;;;;;;;10.79;100.00;99396.56;5066541;28;20399;-57
2023/04/02 00:39:57;;;;;;;;;;;;;;;10.73;100.00;99396.81;5070699;28;20325;-57
2023/04/02 00:42:24;;;;;;;;;;;;;;;10.75;100.00;99390.53;5070388;28;19958;-57
2023/04/02 00:44:49;;;;;;;;;;;;;;;10.75;100.00;99390.53;5070230;28;20365;-57
2023/04/02 00:47:23;;;;;;;;;;;;;;;10.72;100.00;99392.44;5059326;28;20022;-57
2023/04/02 00:49:52;;;;;;;;;;;;;;;10.74;100.00;99388.78;5069492;28;19938;-57
2023/04/02 00:52:22;;;;;;;;;;;;;;;10.76;100.00;99386.06;5052964;28;19968;-57
2023/04/02 00:54:49;;;;;;;;;;;;;;;10.76;100.00;99388.75;5030665;28;20041;-57
2023/04/02 00:57:20;;;;;;;;;;;;;;;10.79;100.00;99392.09;5029699;28;21488;-57
2023/04/02 01:00:14;;;;;;;;;;;;;;;10.77;100.00;99388.66;5033355;28;20424;-57
2023/04/02 01:02:40;;;;;;;;;;;;;;;10.83;100.00;99384.84;5030117;28;20019;-57
2023/04/02 01:05:14;;;;;;;;;;;;;;;10.82;100.00;99383.13;5038786;28;19945;-57
2023/04/02 01:07:39;;;;;;;;;;;;;;;10.85;100.00;99385.66;5039230;28;20076;-57
2023/04/02 01:10:17;;;;;;;;;;;;;;;10.81;100.00;99394.72;5030541;28;20022;-57
2023/04/02 01:12:48;;;;;;;;;;;;;;;10.82;100.00;99396.44;5039316;28;19925;-57
2023/04/02 01:15:24;;;;;;;;;;;;;;;10.82;100.00;99391.13;5051618;28;20587;-57
2023/04/02 01:17:53;;;;;;;;;;;;;;;10.83;100.00;99399.03;5048905;28;19957;-57
2023/04/02 01:20:18;;;;;;;;;;;;;;;10.84;100.00;99402.56;5050675;28;20025;-57
2023/04/02 01:22:50;;;;;;;;;;;;;;;10.84;100.00;99395.44;5050404;28;20052;-56
2023/04/02 01:25:17;;;;;;;;;;;;;;;10.85;100.00;99396.31;5035080;28;19937;-57
2023/04/02 01:27:48;;;;;;;;;;;;;;;10.84;100.00;99399.91;5030323;28;19933;-57
2023/04/02 01:30:14;;;;;;;;;;;;;;;10.84;100.00;99405.22;5038939;28;20461;-57
2023/04/02 01:32:41;;;;;;;;;;;;;;;10.80;100.00;99406.28;5050181;28;19963;-57
2023/04/02 01:35:07;;;;;;;;;;;;;;;10.81;100.00;99402.69;5050575;28;20380;-57
2023/04/02 01:37:48;;;;;;;;;;;;;;;10.82;100.00;99401.75;5050232;28;19937;-57
2023/04/02 01:40:13;;;;;;;;;;;;;;;10.84;100.00;99415.88;5037194;28;20284;-56
2023/04/02 01:42:39;;;;;;;;;;;;;;;10.83;100.00;99411.47;5030564;28;19955;-56
2023/04/02 01:45:08;;;;;;;;;;;;;;;10.87;100.00;99407.75;5030815;28;19989;-56
2023/04/02 01:47:33;;;;;;;;;;;;;;;10.87;100.00;99411.28;5040423;28;19924;-57
2023/04/02 01:50:04;;;;;;;;;;;;;;;10.93;100.00;99413.66;5047164;28;19939;-57
2023/04/02 01:52:38;;;;;;;;;;;;;;;10.96;100.00;99417.97;5066427;28;20375;-57
2023/04/02 01:55:04;;;;;;;;;;;;;;;10.92;100.00;99417.28;5056560;28;19969;-57
2023/04/02 01:57:29;;;;;;;;;;;;;;;10.91;100.00;99418.19;5052533;28;19942;-57
2023/04/02 01:59:55;;;;;;;;;;;;;;;10.97;100.00;99422.38;5052735;28;19931;-57
2023/04/02 02:02:20;;;;;;;;;;;;;;;11.01;100.00;99427.50;5049590;28;20043;-57
2023/04/02 02:04:46;;;;;;;;;;;;;;;10.96;100.00;99424.16;5056447;28;19941;-56
2023/04/02 02:07:17;;;;;;;;;;;;;;;10.91;100.00;99428.81;5055474;28;20061;-57
2023/04/02 02:09:42;;;;;;;;;;;;;;;10.88;100.00;99425.44;5065444;28;19982;-56
2023/04/02 02:12:12;;;;;;;;;;;;;;;10.81;100.00;99430.16;5056874;28;19978;-56
2023/04/02 02:14:37;;;;;;;;;;;;;;;10.86;100.00;99429.94;5050154;28;20727;-57
2023/04/02 02:17:03;;;;;;;;;;;;;;;10.85;100.00;99433.53;5052558;28;19998;-57
2023/04/02 02:19:35;;;;;;;;;;;;;;;10.87;100.00;99426.38;5067114;28;19936;-56
2023/04/02 02:22:19;;;;;;;;;;;;;;;10.85;100.00;99434.41;5073709;28;19960;-57
2023/04/02 02:24:45;;;;;;;;;;;;;;;10.88;100.00;99436.94;5056199;28;19931;-57
2023/04/02 02:27:14;;;;;;;;;;;;;;;10.83;100.00;99436.28;5053675;28;19927;-56
2023/04/02 02:29:41;;;;;;;;;;;;;;;10.80;100.00;99440.84;5062393;28;19930;-57
2023/04/02 02:32:08;;;;;;;;;;;;;;;10.80;100.00;99451.50;5073128;28;19932;-57
2023/04/02 02:34:37;;;;;;;;;;;;;;;10.74;100.00;99441.13;5072693;28;19927;-58
2023/04/02 02:37:21;;;;;;;;;;;;;;;10.70;100.00;99447.50;5073523;28;19989;-57
2023/04/02 02:39:50;;;;;;;;;;;;;;;10.77;100.00;99447.19;5056415;28;19938;-58
2023/04/02 02:42:19;;;;;;;;;;;;;;;10.80;100.00;99451.50;5053528;28;19956;-57
2023/04/02 02:44:47;;;;;;;;;;;;;;;10.79;100.00;99455.94;5054961;28;19927;-58
2023/04/02 02:47:21;;;;;;;;;;;;;;;10.80;100.00;99462.13;5053662;28;20580;-57
2023/04/02 02:49:49;;;;;;;;;;;;;;;10.74;100.00;99462.41;5060202;28;20313;-58
2023/04/02 02:52:24;;;;;;;;;;;;;;;10.73;100.00;99464.19;4632389;28;19963;-58
2023/04/02 02:54:51;;;;;;;;;;;;;;;10.71;100.00;99463.38;5055557;28;19938;-57
2023/04/02 02:57:20;;;;;;;;;;;;;;;10.70;100.00;99463.44;5053220;28;20444;-57
2023/04/02 02:59:46;;;;;;;;;;;;;;;10.66;100.00;99465.38;5053303;28;19928;-58
2023/04/02 03:02:13;;;;;;;;;;;;;;;10.63;100.00;99455.75;5066636;28;19955;-58
2023/04/02 03:04:39;;;;;;;;;;;;;;;10.63;100.00;99463.72;5072370;28;19938;-58
2023/04/02 03:07:07;;;;;;;;;;;;;;;10.68;100.00;99466.19;5068868;28;19936;-58
2023/04/02 03:09:39;;;;;;;;;;;;;;;10.68;100.00;99474.16;5072259;28;19935;-58
2023/04/02 03:12:27;;;;;;;;;;;;;;;10.69;100.00;99477.69;5072833;28;20418;-58
2023/04/02 03:14:57;;;;;;;;;;;;;;;10.73;100.00;99472.19;5071713;28;19933;-58
2023/04/02 03:17:42;;;;;;;;;;;;;;;10.73;100.00;99479.28;5069041;28;19935;-58
2023/04/02 03:20:30;;;;;;;;;;;;;;;10.75;100.00;99474.78;5070831;28;20000;-58
2023/04/02 03:22:59;;;;;;;;;;;;;;;10.77;100.00;99486.22;5059947;28;19957;-58
2023/04/02 03:25:32;;;;;;;;;;;;;;;10.80;100.00;99484.28;5052314;28;19924;-58
2023/04/02 03:28:00;;;;;;;;;;;;;;;10.78;100.00;99485.28;5055469;28;19942;-58
2023/04/02 03:30:45;;;;;;;;;;;;;;;10.85;100.00;99489.41;5051901;28;19973;-58
2023/04/02 03:33:16;;;;;;;;;;;;;;;10.90;100.00;99490.09;5052454;28;19933;-58
2023/04/02 03:36:05;;;;;;;;;;;;;;;10.87;100.00;99490.22;5054337;28;20343;-58
2023/04/02 03:38:34;;;;;;;;;;;;;;;10.85;100.00;99492.06;5023979;28;19931;-58
2023/04/02 03:41:10;;;;;;;;;;;;;;;10.90;100.00;99495.41;5058954;28;20019;-58
2023/04/02 03:43:40;;;;;;;;;;;;;;;10.88;100.00;99505.25;5064166;28;19974;-58
2023/04/02 03:46:25;;;;;;;;;;;;;;;10.91;100.00;99502.44;5052212;28;19947;-58
2023/04/02 03:48:53;;;;;;;;;;;;;;;10.93;100.00;99503.25;5048186;28;19944;-58
2023/04/02 03:51:18;;;;;;;;;;;;;;;10.89;100.00;99512.31;5051186;28;19950;-58
2023/04/02 03:53:45;;;;;;;;;;;;;;;10.90;100.00;99511.38;5051226;28;19920;-58
2023/04/02 03:56:19;;;;;;;;;;;;;;;10.95;100.00;99510.25;5064769;28;19940;-58
2023/04/02 03:58:49;;;;;;;;;;;;;;;10.97;100.00;99518.19;5071408;28;19928;-58
2023/04/02 04:01:23;;;;;;;;;;;;;;;10.98;100.00;99533.19;5068949;28;19950;-58
2023/04/02 04:04:03;;;;;;;;;;;;;;;11.01;100.00;99523.31;5071186;28;20348;-58
2023/04/02 04:06:30;;;;;;;;;;;;;;;10.99;100.00;99532.28;5052654;28;20037;-58
2023/04/02 04:09:04;;;;;;;;;;;;;;;11.02;100.00;99534.81;5070559;28;19937;-58
2023/04/02 04:11:31;;;;;;;;;;;;;;;10.99;100.00;99538.47;5071399;28;19997;-58
2023/04/02 04:14:02;;;;;;;;;;;;;;;11.00;100.00;99539.34;5058946;28;19937;-58
2023/04/02 04:16:33;;;;;;;;;;;;;;;11.00;100.00;99544.66;5051621;28;19934;-58
2023/04/02 04:19:28;;;;;;;;;;;;;;;11.03;100.00;99550.72;5058949;28;19943;-58
2023/04/02 04:22:06;;;;;;;;;;;;;;;11.00;100.00;99547.31;5058472;28;19955;-58
2023/04/02 04:24:38;;;;;;;;;;;;;;;10.98;100.00;99546.50;5068607;28;19959;-58
2023/04/02 04:27:15;;;;;;;;;;;;;;;10.95;100.00;99547.50;5050823;28;19940;-58
2023/04/02 04:29:48;;;;;;;;;;;;;;;10.97;100.00;99555.44;5050532;28;19952;-58
2023/04/02 04:32:30;;;;;;;;;;;;;;;10.91;100.00;99551.22;5053004;28;19979;-58
2023/04/02 04:35:06;;;;;;;;;;;;;;;10.89;100.00;99561.06;5050741;28;20025;-58
2023/04/02 04:37:35;;;;;;;;;;;;;;;10.91;100.00;99561.00;5053670;28;19945;-58
2023/04/02 04:40:36;;;;;;;;;;;;;;;10.88;100.00;99555.78;5067455;28;20068;-58
2023/04/02 04:43:04;;;;;;;;;;;;;;;10.87;100.00;99564.72;4969342;28;19957;-58
2023/04/02 04:45:35;;;;;;;;;;;;;;;10.83;100.00;99563.09;5051642;28;20397;-58
2023/04/02 04:48:03;;;;;;;;;;;;;;;10.81;100.00;99571.16;5071462;28;19951;-58
2023/04/02 04:50:29;;;;;;;;;;;;;;;10.82;100.00;99578.22;5053852;28;20305;-58
2023/04/02 04:52:54;;;;;;;;;;;;;;;10.76;100.00;99582.91;5050705;28;19924;-58
2023/04/02 04:55:19;;;;;;;;;;;;;;;10.77;100.00;99584.63;5053668;28;20572;-58
2023/04/02 04:57:47;;;;;;;;;;;;;;;10.75;100.00;99583.81;5051226;28;19921;-58
2023/04/02 05:00:16;;;;;;;;;;;;;;;10.75;100.00;99586.50;5051048;28;19929;-58
2023/04/02 05:02:50;;;;;;;;;;;;;;;10.77;100.00;99589.97;5068330;28;20419;-58
2023/04/02 05:05:18;;;;;;;;;;;;;;;10.74;100.00;99590.09;5070440;28;20365;-58
2023/04/02 05:07:46;;;;;;;;;;;;;;;10.75;100.00;99590.03;5071054;28;19929;-58
2023/04/02 05:10:16;;;;;;;;;;;;;;;10.75;100.00;99597.13;5066532;28;20013;-58
2023/04/02 05:12:55;;;;;;;;;;;;;;;10.70;100.00;99599.09;5059069;28;19967;-58
2023/04/02 05:15:28;;;;;;;;;;;;;;;10.66;100.00;99603.66;5051913;28;19980;-58
2023/04/02 05:17:56;;;;;;;;;;;;;;;10.64;100.00;99601.06;5069783;28;19933;-58
2023/04/02 05:20:33;;;;;;;;;;;;;;;10.68;100.00;99598.28;5054343;28;19937;-58
2023/04/02 05:22:59;;;;;;;;;;;;;;;10.71;100.00;99600.84;5047548;28;20055;-58
2023/04/02 05:25:26;;;;;;;;;;;;;;;10.74;100.00;99606.03;5049269;28;20381;-58
2023/04/02 05:28:00;;;;;;;;;;;;;;;10.72;100.00;99603.44;5048649;28;19980;-58
2023/04/02 05:30:25;;;;;;;;;;;;;;;10.76;100.00;99606.88;5067204;28;19937;-58
2023/04/02 05:32:57;;;;;;;;;;;;;;;10.75;100.00;99613.97;5070361;28;20376;-58
2023/04/02 05:35:26;;;;;;;;;;;;;;;10.76;100.00;99617.50;5066506;28;19982;-58
2023/04/02 05:37:51;;;;;;;;;;;;;;;10.73;100.00;99620.25;5070190;28;20457;-58
2023/04/02 05:40:46;;;;;;;;;;;;;;;10.76;100.00;99618.34;5063429;28;19976;-58
2023/04/02 05:43:14;;;;;;;;;;;;;;;10.82;100.00;99617.25;5037129;28;19958;-58
2023/04/02 05:45:41;;;;;;;;;;;;;;;10.82;100.00;99630.56;5051389;28;20281;-58
2023/04/02 05:48:14;;;;;;;;;;;;;;;10.83;100.00;99624.28;5070517;28;19950;-58
2023/04/02 05:50:41;;;;;;;;;;;;;;;10.80;100.00;99638.59;5070342;28;19928;-58
2023/04/02 05:53:16;;;;;;;;;;;;;;;10.89;100.00;99632.88;5039155;28;19988;-58
2023/04/02 05:56:14;;;;;;;;;;;;;;;10.90;100.00;99634.66;5033682;28;19946;-58
2023/04/02 05:58:54;;;;;;;;;;;;;;;10.92;100.00;99640.78;5022342;28;19944;-58
2023/04/02 06:01:22;;;;;;;;;;;;;;;10.97;100.00;99653.88;5054037;28;19948;-58
2023/04/02 06:03:59;;;;;;;;;;;;;;;11.00;100.00;99651.97;5050936;28;19938;-58
2023/04/02 06:06:34;;;;;;;;;;;;;;;11.00;100.00;99648.44;5053586;28;19932;-58
2023/04/02 06:09:04;;;;;;;;;;;;;;;11.08;100.00;99655.19;5056820;28;19932;-58
2023/04/02 06:11:31;;;;;;;;;;;;;;;11.10;100.00;99657.78;5053970;28;19925;-58
2023/04/02 06:13:57;;;;;;;;;;;;;;;11.15;100.00;99663.78;5043121;28;20677;-58
2023/04/02 06:16:25;;;;;;;;;;;;;;;11.19;100.00;99668.94;5033845;28;20043;-58
2023/04/02 06:18:50;;;;;;;;;;;;;;;11.25;100.00;99670.47;5045619;28;20729;-58
2023/04/02 06:21:16;;;;;;;;;;;;;;;11.22;100.00;99673.28;5034051;28;20050;-58
2023/04/02 06:23:50;;;;;;;;;;;;;;;11.29;100.00;99670.28;5034056;28;20301;-58
2023/04/02 06:26:32;;;;;;;;;;;;;;;11.35;100.00;99674.50;5051331;28;19927;-58
2023/04/02 06:29:17;;;;;;;;;;;;;;;11.37;100.00;99684.16;5042797;28;19936;-58
2023/04/02 06:31:49;;;;;;;;;;;;;;;11.43;100.00;99683.03;5034002;28;19987;-58
2023/04/02 06:34:25;;;;;;;;;;;;;;;11.48;100.00;99686.38;5036512;28;19939;-58
2023/04/02 06:36:54;;;;;;;;;;;;;;;11.43;100.00;99689.22;5033529;28;20456;-58
2023/04/02 06:39:21;;;;;;;;;;;;;;;11.48;100.00;99689.03;5033942;28;19933;-58
2023/04/02 06:41:53;;;;;;;;;;;;;;;11.53;100.00;99695.06;5044220;28;19992;-58
2023/04/02 06:44:21;;;;;;;;;;;;;;;11.54;100.00;99702.09;5073814;28;19948;-58
2023/04/02 06:46:47;;;;;;;;;;;;;;;11.51;100.00;99696.91;5073512;28;19934;-58
2023/04/02 06:49:18;;;;;;;;;;;;;;;11.56;100.00;99710.91;5062069;28;19938;-58
2023/04/02 06:51:44;;;;;;;;;;;;;;;11.63;100.00;99718.59;5051253;28;19998;-58
2023/04/02 06:54:14;;;;;;;;;;;;;;;11.69;100.00;99717.47;5053472;28;19943;-58
2023/04/02 06:56:40;;;;;;;;;;;;;;;11.69;100.00;99722.81;5053419;28;20458;-58
2023/04/02 06:59:06;;;;;;;;;;;;;;;11.70;100.00;99721.88;5049876;28;20023;-58
2023/04/02 07:01:34;;;;;;;;;;;;;;;11.69;100.00;99728.13;5053249;28;19947;-58
2023/04/02 07:03:59;;;;;;;;;;;;;;;11.73;100.00;99727.06;5048585;28;19954;-58
2023/04/02 07:06:25;;;;;;;;;;;;;;;11.90;100.00;99736.09;5051714;28;19921;-58
2023/04/02 07:08:50;;;;;;;;;;;;;;;12.03;100.00;99741.75;5052932;28;19938;-58
2023/04/02 07:11:17;;;;;;;;;;;;;;;12.17;100.00;99743.84;5036928;28;19935;-58
2023/04/02 07:13:43;;;;;;;;;;;;;;;12.18;100.00;99749.09;5051629;28;20043;-58
2023/04/02 07:16:28;;;;;;;;;;;;;;;12.25;100.00;99747.91;5049062;28;20021;-58
2023/04/02 07:18:54;;;;;;;;;;;;;;;12.32;100.00;99757.34;5048905;28;19913;-58
2023/04/02 07:21:20;;;;;;;;;;;;;;;12.44;100.00;99759.50;5052796;28;19955;-58
2023/04/02 07:23:45;;;;;;;;;;;;;;;12.59;100.00;99761.50;5053116;28;19931;-58
2023/04/02 07:26:15;;;;;;;;;;;;;;;12.61;100.00;99759.63;5038508;28;19920;-58
2023/04/02 07:28:41;;;;;;;;;;;;;;;12.58;100.00;99758.91;5049004;28;20432;-58
2023/04/02 07:31:16;;;;;;;;;;;;;;;12.70;100.00;99767.19;5048906;28;19976;-58
2023/04/02 07:33:42;;;;;;;;;;;;;;;12.74;100.00;99767.94;5052437;28;19986;-58
2023/04/02 07:36:11;;;;;;;;;;;;;;;12.79;100.00;99772.13;5051737;28;19941;-58
2023/04/02 07:38:36;;;;;;;;;;;;;;;12.91;100.00;99781.38;5035096;28;20329;-58
2023/04/02 07:41:05;;;;;;;;;;;;;;;12.88;100.00;99779.72;5040130;28;19939;-58
2023/04/02 07:43:31;;;;;;;;;;;;;;;12.83;99.40;99776.38;5043244;28;19963;-58
2023/04/02 07:45:56;;;;;;;;;;;;;;;12.78;98.44;99788.22;5032217;28;19946;-58
2023/04/02 07:48:22;;;;;;;;;;;;;;;12.83;98.93;99781.72;5037135;28;20006;-58
2023/04/02 07:50:47;;;;;;;;;;;;;;;12.88;98.75;99792.22;5034593;28;20366;-58
2023/04/02 07:53:28;;;;;;;;;;;;;;;12.91;98.71;99790.28;5050234;28;19970;-58
2023/04/02 07:55:54;;;;;;;;;;;;;;;12.80;98.41;99795.22;5054701;28;19935;-58
2023/04/02 07:58:19;;;;;;;;;;;;;;;12.67;98.90;99794.03;5051969;28;20003;-58
2023/04/02 08:00:44;;;;;;;;;;;;;;;12.79;98.96;99806.84;5054534;28;20128;-58
2023/04/02 08:03:11;;;;;;;;;;;;;;;12.84;98.56;99804.84;5052132;28;20396;-58
2023/04/02 08:05:37;;;;;;;;;;;;;;;12.91;98.15;99816.97;5064862;28;19952;-58
2023/04/02 08:08:02;;;;;;;;;;;;;;;12.93;97.12;99809.75;5058239;28;19935;-58
2023/04/02 08:10:27;;;;;;;;;;;;;;;12.90;96.35;99815.22;5052323;28;19916;-58
2023/04/02 08:12:53;;;;;;;;;;;;;;;13.03;96.57;99816.44;5051731;28;19930;-58
2023/04/02 08:15:18;;;;;;;;;;;;;;;12.91;95.57;99814.31;5052076;28;19937;-58
2023/04/02 08:17:44;;;;;;;;;;;;;;;12.81;95.39;99810.31;5069591;28;19934;-58
2023/04/02 08:20:20;;;;;;;;;;;;;;;12.77;95.25;99818.50;5071044;28;19946;-58
2023/04/02 08:22:45;;;;;;;;;;;;;;;12.97;95.23;99823.81;5060132;28;20045;-58
2023/04/02 08:25:11;;;;;;;;;;;;;;;13.02;95.19;99822.72;5051667;28;20370;-58
2023/04/02 08:27:37;;;;;;;;;;;;;;;13.11;95.15;99827.63;5053098;28;19982;-58
2023/04/02 08:30:03;;;;;;;;;;;;;;;13.09;94.00;99836.66;5051884;28;19938;-58
2023/04/02 08:32:28;;;;;;;;;;;;;;;13.20;94.65;99837.03;5051004;28;19935;-58
2023/04/02 08:34:53;;;;;;;;;;;;;;;13.08;92.98;99846.47;5064839;28;20431;-58
2023/04/02 08:37:19;;;;;;;;;;;;;;;13.10;93.00;99844.59;5053185;28;19939;-58
2023/04/02 08:39:45;;;;;;;;;;;;;;;13.08;92.59;99851.81;5071185;28;19944;-58
2023/04/02 08:42:17;;;;;;;;;;;;;;;13.20;93.50;99856.59;5071017;28;20426;-58
2023/04/02 08:44:48;;;;;;;;;;;;;;;13.20;94.05;99861.94;5067404;28;19941;-58
2023/04/02 08:47:16;;;;;;;;;;;;;;;13.20;93.14;99855.72;5070705;28;19970;-58
2023/04/02 08:49:48;;;;;;;;;;;;;;;13.13;92.12;99860.47;5042341;28;20015;-58
2023/04/02 08:52:22;;;;;;;;;;;;;;;13.14;93.21;99856.88;5050753;28;19959;-58
2023/04/02 08:54:47;;;;;;;;;;;;;;;13.26;92.19;99870.59;5053249;28;19933;-58
2023/04/02 08:57:25;;;;;;;;;;;;;;;13.35;93.03;99864.81;5050820;28;19932;-58
2023/04/02 08:59:54;;;;;;;;;;;;;;;13.44;92.17;99878.66;5050877;28;20407;-58
2023/04/02 09:02:33;;;;;;;;;;;;;;;13.38;91.16;99880.75;5053303;28;19953;-58
2023/04/02 09:05:01;;;;;;;;;;;;;;;13.43;91.57;99884.03;5058849;28;19989;-58
2023/04/02 09:07:27;;;;;;;;;;;;;;;13.51;91.23;99889.91;5062560;28;19939;-58
2023/04/02 09:09:52;;;;;;;;;;;;;;;13.33;88.42;99891.59;5055518;28;19939;-57
2023/04/02 09:12:19;;;;;;;;;;;;;;;13.38;89.74;99897.63;5050390;28;19937;-57
2023/04/02 09:14:53;;;;;;;;;;;;;;;13.50;89.56;99904.19;5053367;28;19916;-57
2023/04/02 09:17:20;;;;;;;;;;;;;;;13.56;89.71;99895.91;5051404;28;19930;-58
2023/04/02 09:20:00;;;;;;;;;;;;;;;13.78;89.82;99896.63;5068869;28;19947;-58
2023/04/02 09:22:27;;;;;;;;;;;;;;;13.57;86.67;99894.97;5066846;28;19950;-58
2023/04/02 09:24:57;;;;;;;;;;;;;;;13.72;87.53;99905.78;5069191;28;19993;-57
2023/04/02 09:27:24;;;;;;;;;;;;;;;14.00;87.04;99902.69;5069667;28;19927;-58
2023/04/02 09:29:55;;;;;;;;;;;;;;;14.20;86.05;99906.13;5049061;28;19925;-57
2023/04/02 09:32:33;;;;;;;;;;;;;;;14.47;84.58;99909.28;5055674;28;20251;-57
2023/04/02 09:35:06;;;;;;;;;;;;;;;14.70;84.21;99917.00;5053861;28;19936;-57
2023/04/02 09:37:32;;;;;;;;;;;;;;;14.93;84.63;99924.75;5070504;28;20300;-58
2023/04/02 09:40:17;;;;;;;;;;;;;;;14.96;81.56;99924.56;5070029;28;19941;-57
2023/04/02 09:42:42;;;;;;;;;;;;;;;15.30;80.82;99929.03;5051973;28;20370;-57
2023/04/02 09:45:21;;;;;;;;;;;;;;;15.56;79.67;99934.78;5050777;28;19941;-57
2023/04/02 09:47:46;;;;;;;;;;;;;;;15.79;79.31;99934.41;5059058;28;19935;-57
2023/04/02 09:50:32;;;;;;;;;;;;;;;16.02;78.96;99929.53;5069552;28;20005;-57
2023/04/02 09:52:58;;;;;;;;;;;;;;;16.19;74.18;99945.56;5057743;28;19961;-57
2023/04/02 09:55:26;;;;;;;;;;;;;;;16.21;71.57;99946.38;5049658;28;20433;-57
2023/04/02 09:58:05;;;;;;;;;;;;;;;16.12;71.73;99949.53;5049461;28;19916;-57
2023/04/02 10:00:31;;;;;;;;;;;;;;;16.29;71.00;99944.09;5032227;28;19943;-58
2023/04/02 10:03:01;;;;;;;;;;;;;;;16.63;72.46;99941.22;5029655;28;20406;-57
2023/04/02 10:05:26;;;;;;;;;;;;;;;16.80;72.02;99944.66;5032970;28;20301;-57
2023/04/02 10:07:53;;;;;;;;;;;;;;;16.82;72.00;99948.13;5028990;28;20126;-57
2023/04/02 10:10:25;;;;;;;;;;;;;;;16.99;71.67;99958.75;5031199;28;19977;-58
2023/04/02 10:12:58;;;;;;;;;;;;;;;16.90;67.57;99961.13;5049302;28;19936;-57
2023/04/02 10:15:30;;;;;;;;;;;;;;;17.02;69.66;99957.69;5030600;28;19929;-58
2023/04/02 10:18:00;;;;;;;;;;;;;;;17.30;70.08;99960.44;5036730;28;20290;-57
2023/04/02 10:20:26;;;;;;;;;;;;;;;17.67;69.33;99968.03;5047282;28;19937;-57
2023/04/02 10:22:52;;;;;;;;;;;;;;;17.99;69.55;99969.53;5052631;28;19950;-57
2023/04/02 10:25:20;;;;;;;;;;;;;;;18.30;67.27;99963.06;5056945;28;19956;-56
2023/04/02 10:27:59;;;;;;;;;;;;;;;18.63;65.40;99970.81;5038728;28;20398;-57
2023/04/02 10:30:27;;;;;;;;;;;;;;;18.70;63.34;99977.53;5029626;28;19945;-57
2023/04/02 10:33:03;;;;;;;;;;;;;;;19.00;63.90;99970.06;5029714;28;19928;-57
2023/04/02 10:35:52;;;;;;;;;;;;;;;19.22;59.19;99981.13;5034536;28;20494;-57
2023/04/02 10:38:17;;;;;;;;;;;;;;;19.39;61.19;99979.03;5029280;28;20407;-57
2023/04/02 10:41:01;;;;;;;;;;;;;;;18.71;59.12;99988.19;5032923;28;19960;-57
2023/04/02 10:43:35;;;;;;;;;;;;;;;18.43;62.17;99982.91;5034572;28;19925;-57
2023/04/02 10:46:08;;;;;;;;;;;;;;;18.58;65.31;99983.72;5032270;28;19978;-57
2023/04/02 10:48:41;;;;;;;;;;;;;;;18.92;61.65;99993.97;5043253;28;20396;-57
2023/04/02 10:51:11;;;;;;;;;;;;;;;19.23;58.86;99990.94;5054583;28;19999;-57
2023/04/02 10:53:39;;;;;;;;;;;;;;;19.83;56.32;99992.13;5050517;28;19985;-57
2023/04/02 10:56:09;;;;;;;;;;;;;;;20.46;54.94;99995.59;5032937;28;19930;-57
2023/04/02 10:58:37;;;;;;;;;;;;;;;20.41;51.49;99997.78;5032563;28;20352;-57
2023/04/02 11:01:15;;;;;;;;;;;;;;;20.77;52.96;99995.06;5032726;28;19935;-57
2023/04/02 11:03:47;;;;;;;;;;;;;;;21.00;51.84;99996.09;5033589;28;20005;-57
2023/04/02 11:06:21;;;;;;;;;;;;;;;20.46;47.93;100000.16;5050646;28;19948;-57
2023/04/02 11:08:48;;;;;;;;;;;;;;;20.04;47.53;100009.50;5037785;28;19944;-57
2023/04/02 11:11:16;;;;;;;;;;;;;;;19.47;50.52;99970.41;5042102;28;19936;-57
2023/04/02 11:13:59;;;;;;;;;;;;;;;19.49;51.01;100015.19;5044062;28;19936;-57
2023/04/02 11:16:26;;;;;;;;;;;;;;;19.62;52.53;100016.06;5043286;28;19973;-58
2023/04/02 11:19:10;;;;;;;;;;;;;;;19.11;51.04;100018.75;5048271;28;19963;-57
2023/04/02 11:21:42;;;;;;;;;;;;;;;18.97;53.77;100026.88;5048505;28;19952;-57
2023/04/02 11:24:28;;;;;;;;;;;;;;;18.78;58.02;100018.31;5039625;28;20269;-57
2023/04/02 11:27:02;;;;;;;;;;;;;;;18.27;60.27;100023.38;5031432;28;19917;-57
2023/04/02 11:29:29;;;;;;;;;;;;;;;18.05;61.32;100017.63;5033682;28;19937;-57
2023/04/02 11:32:13;;;;;;;;;;;;;;;18.02;64.55;100028.56;5031392;28;19924;-57
2023/04/02 11:34:41;;;;;;;;;;;;;;;17.89;63.51;100030.28;5039540;28;19917;-57
2023/04/02 11:37:28;;;;;;;;;;;;;;;17.77;64.99;100028.38;5031926;28;19936;-57
2023/04/02 11:39:58;;;;;;;;;;;;;;;17.93;64.82;100030.97;5032300;28;19933;-57
2023/04/02 11:42:23;;;;;;;;;;;;;;;18.21;64.68;100031.84;5034466;28;20328;-57
2023/04/02 11:44:49;;;;;;;;;;;;;;;18.26;64.13;100032.41;5031996;28;19928;-57
2023/04/02 11:47:20;;;;;;;;;;;;;;;18.26;63.90;100031.53;5034894;28;19935;-57
2023/04/02 11:49:54;;;;;;;;;;;;;;;18.57;64.34;100041.22;5050109;28;20396;-57
2023/04/02 11:52:21;;;;;;;;;;;;;;;19.17;63.04;100039.91;5060150;28;19959;-58
2023/04/02 11:54:53;;;;;;;;;;;;;;;19.43;59.72;100044.44;5053811;28;19994;-58
2023/04/02 11:57:26;;;;;;;;;;;;;;;19.24;56.92;100043.94;5051459;28;19941;-57
2023/04/02 11:59:58;;;;;;;;;;;;;;;19.09;60.17;100047.66;5050716;28;19931;-57
2023/04/02 12:02:39;;;;;;;;;;;;;;;18.71;58.71;100043.91;5056547;28;20018;-57
2023/04/02 12:05:24;;;;;;;;;;;;;;;18.44;57.60;100043.88;5070694;28;19954;-57
2023/04/02 12:07:55;;;;;;;;;;;;;;;18.23;59.33;100050.59;5070810;28;19931;-57
2023/04/02 12:10:30;;;;;;;;;;;;;;;18.14;60.67;100052.03;5070574;28;19980;-57
2023/04/02 12:12:56;;;;;;;;;;;;;;;18.05;60.28;100059.81;5054505;28;19929;-57
2023/04/02 12:15:24;;;;;;;;;;;;;;;17.83;58.90;100060.28;5051166;28;19933;-57
2023/04/02 12:17:50;;;;;;;;;;;;;;;17.47;59.31;100062.50;5062565;28;20003;-57
2023/04/02 12:20:20;;;;;;;;;;;;;;;17.46;60.91;100060.75;5070671;28;19952;-57
2023/04/02 12:22:47;;;;;;;;;;;;;;;17.35;62.31;100057.81;5070389;28;19941;-57
2023/04/02 12:25:21;;;;;;;;;;;;;;;17.10;60.71;100061.09;5070228;28;20003;-57
2023/04/02 12:27:47;;;;;;;;;;;;;;;17.11;61.94;100064.66;5067361;28;19947;-57
2023/04/02 12:30:16;;;;;;;;;;;;;;;17.19;65.41;100057.00;5070241;28;20390;-57
2023/04/02 12:32:41;;;;;;;;;;;;;;;17.17;64.57;100069.66;5071253;28;20460;-57
2023/04/02 12:35:25;;;;;;;;;;;;;;;17.12;62.64;100077.13;5068868;28;20029;-57
2023/04/02 12:37:51;;;;;;;;;;;;;;;17.16;63.88;100072.44;5051117;28;20288;-57
2023/04/02 12:40:17;;;;;;;;;;;;;;;17.29;65.20;100078.84;5051295;28;19946;-57
2023/04/02 12:42:42;;;;;;;;;;;;;;;17.35;64.28;100079.34;5068452;28;19960;-57
2023/04/02 12:45:21;;;;;;;;;;;;;;;17.34;61.98;100083.00;5070572;28;20303;-57
2023/04/02 12:47:47;;;;;;;;;;;;;;;17.37;59.33;100081.94;5070679;28;19928;-57
2023/04/02 12:50:13;;;;;;;;;;;;;;;17.38;58.08;100084.53;5066747;28;19943;-57
2023/04/02 12:52:43;;;;;;;;;;;;;;;17.50;58.73;100086.53;5070670;28;19958;-57
2023/04/02 12:55:15;;;;;;;;;;;;;;;17.52;59.79;100090.00;5070453;28;19925;-57
2023/04/02 12:57:41;;;;;;;;;;;;;;;17.38;57.17;100091.75;5052851;28;19947;-57